createdAt,value
2019-05-18T00:00:25.769Z,14.60
2019-05-18T00:05:29.642Z,14.60
2019-05-18T00:10:33.521Z,14.50
2019-05-18T00:15:37.469Z,14.40
2019-05-18T00:20:44.929Z,14.40
2019-05-18T00:25:48.843Z,14.40
2019-05-18T00:30:52.764Z,14.30
2019-05-18T00:35:56.699Z,14.30
2019-05-18T00:41:00.628Z,14.30
2019-05-18T00:46:05.449Z,14.20
2019-05-18T00:51:09.362Z,14.20
2019-05-18T00:56:13.461Z,14.20
2019-05-18T01:01:17.360Z,14.20
2019-05-18T01:06:21.286Z,14.10
2019-05-18T01:11:25.196Z,14.10
2019-05-18T01:16:29.330Z,14.10
2019-05-18T01:21:33.258Z,14.00
2019-05-18T01:26:37.157Z,14.00
2019-05-18T01:31:41.076Z,14.10
2019-05-18T01:36:45.445Z,14.10
2019-05-18T01:41:49.443Z,14.00
2019-05-18T01:46:53.411Z,14.00
2019-05-18T01:51:57.334Z,14.00
2019-05-18T01:57:01.389Z,13.90
2019-05-18T02:02:05.318Z,14.00
2019-05-18T02:07:09.200Z,13.90
2019-05-18T02:12:13.090Z,13.90
2019-05-18T02:17:16.961Z,14.00
2019-05-18T02:22:20.877Z,13.90
2019-05-18T02:27:24.737Z,13.90
2019-05-18T02:32:28.622Z,13.90
2019-05-18T02:37:32.511Z,13.80
2019-05-18T02:42:36.369Z,13.80
2019-05-18T02:47:40.263Z,13.80
2019-05-18T02:52:44.129Z,13.80
2019-05-18T02:57:48.014Z,13.70
2019-05-18T03:02:51.893Z,13.70
2019-05-18T03:07:55.777Z,13.50
2019-05-18T03:12:59.691Z,13.40
2019-05-18T03:18:03.563Z,13.40
2019-05-18T03:23:07.442Z,13.30
2019-05-18T03:28:11.321Z,13.30
2019-05-18T03:33:15.200Z,13.30
2019-05-18T03:38:19.001Z,13.40
2019-05-18T03:43:22.870Z,13.30
2019-05-18T03:48:26.758Z,13.30
2019-05-18T03:53:30.671Z,13.20
2019-05-18T03:58:34.587Z,13.20
2019-05-18T04:03:38.501Z,13.30
2019-05-18T04:08:42.418Z,13.30
2019-05-18T04:13:46.337Z,13.30
2019-05-18T04:18:50.272Z,13.40
2019-05-18T04:23:54.185Z,13.40
2019-05-18T04:28:58.101Z,13.40
2019-05-18T04:34:02.028Z,13.40
2019-05-18T04:39:07.066Z,13.40
2019-05-18T04:44:11.001Z,13.30
2019-05-18T04:49:14.911Z,13.30
2019-05-18T04:54:18.822Z,13.30
2019-05-18T04:59:22.740Z,13.20
2019-05-18T05:04:26.649Z,13.30
2019-05-18T05:09:30.589Z,13.40
2019-05-18T05:14:34.519Z,13.40
2019-05-18T05:19:38.407Z,13.50
2019-05-18T05:24:42.279Z,13.60
2019-05-18T05:29:46.166Z,13.60
2019-05-18T05:34:50.045Z,13.80
2019-05-18T05:39:53.934Z,13.80
2019-05-18T05:44:57.817Z,13.90
2019-05-18T05:50:01.698Z,14.10
2019-05-18T05:55:10.186Z,14.20
2019-05-18T06:00:15.938Z,14.30
2019-05-18T06:05:19.896Z,14.30
2019-05-18T06:10:23.795Z,14.40
2019-05-18T06:15:27.827Z,14.50
2019-05-18T06:20:31.756Z,14.60
2019-05-18T06:25:35.738Z,14.70
2019-05-18T06:30:39.655Z,14.80
2019-05-18T06:35:43.580Z,14.90
2019-05-18T06:40:47.505Z,15.00
2019-05-18T06:45:51.422Z,15.10
2019-05-18T06:51:06.713Z,15.30
2019-05-18T06:56:02.037Z,15.40
2019-05-18T07:01:06.091Z,15.50
2019-05-18T07:06:10.043Z,15.60
2019-05-18T07:11:13.946Z,15.70
2019-05-18T07:16:19.542Z,15.90
2019-05-18T07:21:23.488Z,16.00
2019-05-18T07:26:27.430Z,16.00
2019-05-18T07:31:31.364Z,16.20
2019-05-18T07:36:35.272Z,16.30
2019-05-18T07:41:46.932Z,16.40
2019-05-18T07:46:44.811Z,16.50
2019-05-18T07:51:48.735Z,16.60
2019-05-18T07:56:52.662Z,16.80
2019-05-18T08:01:56.605Z,17.00
2019-05-18T08:07:00.590Z,17.20
2019-05-18T08:12:04.599Z,17.40
2019-05-18T08:17:08.582Z,17.60
2019-05-18T08:22:12.520Z,17.90
2019-05-18T08:27:17.097Z,18.10
2019-05-18T08:32:21.044Z,18.30
2019-05-18T08:37:25.109Z,18.70
2019-05-18T08:42:29.002Z,19.00
2019-05-18T08:47:33.026Z,19.30
2019-05-18T08:52:37.040Z,19.80
2019-05-18T08:57:40.985Z,20.00
2019-05-18T09:02:44.913Z,20.50
2019-05-18T09:07:48.837Z,21.30
2019-05-18T09:12:52.752Z,21.50
2019-05-18T09:17:56.730Z,21.80
2019-05-18T09:23:02.108Z,22.10
2019-05-18T09:28:06.288Z,22.50
2019-05-18T09:33:10.254Z,22.90
2019-05-18T09:38:14.754Z,23.20
2019-05-18T09:43:19.030Z,23.00
2019-05-18T09:48:23.119Z,23.20
2019-05-18T09:53:29.950Z,23.00
2019-05-18T09:58:32.924Z,22.80
2019-05-18T10:03:37.058Z,22.90
2019-05-18T10:08:41.388Z,23.10
2019-05-18T10:13:45.417Z,23.30
2019-05-18T10:18:50.145Z,23.60
2019-05-18T10:23:54.294Z,23.80
2019-05-18T10:28:58.221Z,23.70
2019-05-18T10:34:02.258Z,23.80
2019-05-18T10:39:07.614Z,23.60
2019-05-18T10:44:11.642Z,23.80
2019-05-18T10:49:16.900Z,24.10
2019-05-18T10:54:21.550Z,24.00
2019-05-18T10:59:25.572Z,24.20
2019-05-18T11:04:29.601Z,24.50
2019-05-18T11:09:33.647Z,24.20
2019-05-18T11:14:37.883Z,24.40
2019-05-18T11:19:41.896Z,24.20
2019-05-18T11:24:45.925Z,24.30
2019-05-18T11:29:49.924Z,24.40
2019-05-18T11:34:53.986Z,24.40
2019-05-18T11:39:57.991Z,24.50
2019-05-18T11:45:02.358Z,24.40
2019-05-18T11:50:08.432Z,24.60
2019-05-18T11:55:12.659Z,24.80
2019-05-18T12:00:17.326Z,24.70
2019-05-18T12:05:22.818Z,24.70
2019-05-18T12:10:28.437Z,24.50
2019-05-18T12:15:36.969Z,24.40
2019-05-18T12:20:40.125Z,24.30
2019-05-18T12:25:44.209Z,24.30
2019-05-18T12:30:48.237Z,24.50
2019-05-18T12:35:52.309Z,24.20
2019-05-18T12:40:56.502Z,24.30
2019-05-18T12:46:00.438Z,24.50
2019-05-18T12:51:04.361Z,24.50
2019-05-18T12:56:08.308Z,24.40
2019-05-18T13:01:13.334Z,24.50
2019-05-18T13:06:17.821Z,24.40
2019-05-18T13:11:21.999Z,24.20
2019-05-18T13:16:25.969Z,24.30
2019-05-18T13:21:29.892Z,24.30
2019-05-18T13:26:33.812Z,24.10
2019-05-18T13:31:37.756Z,24.10
2019-05-18T13:36:41.587Z,23.90
2019-05-18T13:41:45.496Z,23.90
2019-05-18T13:46:51.408Z,23.90
2019-05-18T13:51:55.811Z,23.80
2019-05-18T13:56:59.875Z,24.00
2019-05-18T14:02:05.429Z,24.10
2019-05-18T14:07:09.910Z,23.90
2019-05-18T14:12:14.116Z,24.00
2019-05-18T14:17:19.498Z,23.90
2019-05-18T14:22:23.612Z,23.90
2019-05-18T14:27:30.654Z,24.00
2019-05-18T14:32:34.638Z,24.00
2019-05-18T14:37:38.551Z,23.90
2019-05-18T14:42:42.397Z,24.00
2019-05-18T14:47:46.788Z,24.10
2019-05-18T14:52:50.774Z,23.90
2019-05-18T14:57:56.268Z,23.90
2019-05-18T15:03:00.130Z,24.00
2019-05-18T15:08:04.707Z,24.10
2019-05-18T15:13:08.636Z,24.00
2019-05-18T15:18:12.714Z,23.70
2019-05-18T15:23:17.037Z,23.80
2019-05-18T15:28:21.421Z,23.80
2019-05-18T15:33:26.155Z,23.90
2019-05-18T15:38:33.347Z,23.70
2019-05-18T15:43:37.335Z,23.60
2019-05-18T15:48:42.083Z,23.60
2019-05-18T15:53:46.353Z,23.50
2019-05-18T15:58:50.667Z,23.50
2019-05-18T16:03:54.955Z,23.50
2019-05-18T16:08:59.773Z,23.50
2019-05-18T16:14:06.133Z,23.40
2019-05-18T16:19:10.754Z,23.30
2019-05-18T16:24:15.339Z,23.20
2019-05-18T16:29:20.715Z,23.10
2019-05-18T16:34:24.938Z,23.00
2019-05-18T16:39:29.083Z,22.70
2019-05-18T16:44:33.877Z,22.70
2019-05-18T16:49:39.185Z,22.50
2019-05-18T16:54:43.948Z,22.50
2019-05-18T16:59:49.010Z,22.30
2019-05-18T17:04:53.066Z,22.20
2019-05-18T17:09:56.926Z,22.20
2019-05-18T17:15:03.472Z,22.10
2019-05-18T17:20:09.130Z,22.00
2019-05-18T17:25:13.531Z,22.00
2019-05-18T17:30:17.888Z,21.80
2019-05-18T17:35:22.022Z,21.80
2019-05-18T17:40:26.076Z,21.70
2019-05-18T17:45:30.225Z,21.60
2019-05-18T17:50:35.143Z,21.60
2019-05-18T17:55:39.044Z,21.50
2019-05-18T18:00:44.264Z,21.40
2019-05-18T18:05:48.271Z,21.40
2019-05-18T18:10:52.199Z,21.40
2019-05-18T18:16:03.907Z,21.30
2019-05-18T18:21:08.349Z,21.20
2019-05-18T18:26:13.085Z,21.10
2019-05-18T18:31:17.338Z,21.00
2019-05-18T18:36:21.539Z,20.90
2019-05-18T18:41:25.977Z,20.80
2019-05-18T18:46:30.003Z,20.70
2019-05-18T18:51:34.074Z,20.60
2019-05-18T18:56:38.110Z,20.50
2019-05-18T19:01:42.069Z,20.40
2019-05-18T19:06:46.031Z,20.40
2019-05-18T19:11:50.018Z,20.30
2019-05-18T19:16:54.504Z,20.20
2019-05-18T19:21:58.914Z,20.20
2019-05-18T19:27:02.975Z,20.10
2019-05-18T19:32:07.744Z,20.00
2019-05-18T19:37:11.715Z,20.00
2019-05-18T19:42:15.742Z,19.90
2019-05-18T19:47:19.709Z,19.90
2019-05-18T19:52:23.795Z,19.80
2019-05-18T19:57:27.990Z,19.80
2019-05-18T20:02:32.458Z,19.70
2019-05-18T20:07:36.603Z,19.70
2019-05-18T20:12:40.616Z,19.60
2019-05-18T20:17:44.481Z,19.50
2019-05-18T20:22:48.383Z,19.50
2019-05-18T20:27:52.336Z,19.50
2019-05-18T20:32:56.247Z,19.40
2019-05-18T20:38:00.145Z,19.30
2019-05-18T20:43:04.101Z,19.20
2019-05-18T20:48:08.030Z,19.10
2019-05-18T20:53:12.189Z,19.10
2019-05-18T20:58:16.084Z,19.00
2019-05-18T21:03:20.117Z,18.90
2019-05-18T21:08:24.094Z,18.90
2019-05-18T21:13:27.957Z,18.80
2019-05-18T21:18:31.844Z,18.80
2019-05-18T21:23:35.759Z,18.70
2019-05-18T21:28:53.437Z,18.70
2019-05-18T21:33:46.893Z,18.60
2019-05-18T21:38:50.788Z,18.60
2019-05-18T21:43:54.673Z,18.50
2019-05-18T21:48:58.610Z,18.60
2019-05-18T21:54:02.583Z,18.50
2019-05-18T21:59:11.678Z,18.40
2019-05-18T22:04:12.112Z,18.30
2019-05-18T22:09:16.052Z,18.30
2019-05-18T22:14:20.000Z,18.20
2019-05-18T22:19:23.915Z,18.20
2019-05-18T22:24:27.772Z,18.10
2019-05-18T22:29:31.666Z,18.10
2019-05-18T22:34:35.538Z,18.00
2019-05-18T22:39:39.816Z,18.00
2019-05-18T22:44:43.715Z,17.90
2019-05-18T22:49:47.603Z,17.80
2019-05-18T22:54:51.485Z,17.70
2019-05-18T22:59:55.349Z,17.60
2019-05-18T23:04:59.223Z,17.50
2019-05-18T23:10:03.312Z,17.50
2019-05-18T23:15:08.198Z,17.40
2019-05-18T23:20:12.198Z,17.30
2019-05-18T23:25:16.382Z,17.20
2019-05-18T23:30:20.245Z,17.20
2019-05-18T23:35:24.121Z,17.20
2019-05-18T23:40:27.995Z,17.30
2019-05-18T23:45:32.091Z,17.20
2019-05-18T23:50:35.972Z,17.20
2019-05-18T23:55:39.884Z,17.20
